createdAt,value
2023-04-30T00:00:10.524Z,8.30
2023-04-30T00:02:39.629Z,7.28
2023-04-30T00:05:10.034Z,8.08
2023-04-30T00:07:40.724Z,8.50
2023-04-30T00:10:10.985Z,9.98
2023-04-30T00:12:39.968Z,6.50
2023-04-30T00:15:10.122Z,7.25
2023-04-30T00:17:39.594Z,6.50
2023-04-30T00:20:14.061Z,7.60
2023-04-30T00:22:43.564Z,10.60
2023-04-30T00:25:12.388Z,10.15
2023-04-30T00:27:41.384Z,8.73
2023-04-30T00:30:12.002Z,10.30
2023-04-30T00:32:43.430Z,7.53
2023-04-30T00:35:12.672Z,9.93
2023-04-30T00:37:41.767Z,8.63
2023-04-30T00:40:11.877Z,7.65
2023-04-30T00:42:40.952Z,7.65
2023-04-30T00:45:11.460Z,6.35
2023-04-30T00:47:41.011Z,6.92
2023-04-30T00:50:10.835Z,7.35
2023-04-30T00:52:40.667Z,6.47
2023-04-30T00:55:12.292Z,6.65
2023-04-30T00:57:42.557Z,6.75
2023-04-30T01:00:13.595Z,8.30
2023-04-30T01:02:42.662Z,6.30
2023-04-30T01:05:12.805Z,7.60
2023-04-30T01:07:45.385Z,6.35
2023-04-30T01:10:15.330Z,5.53
2023-04-30T01:12:54.014Z,5.65
2023-04-30T01:15:47.336Z,5.67
2023-04-30T01:18:28.226Z,7.80
2023-04-30T01:21:04.789Z,8.08
2023-04-30T01:23:53.971Z,5.37
2023-04-30T01:27:00.312Z,6.40
2023-04-30T01:29:29.420Z,8.30
2023-04-30T01:31:58.125Z,7.67
2023-04-30T01:34:27.046Z,5.75
2023-04-30T01:37:32.296Z,4.87
2023-04-30T01:40:24.922Z,6.70
2023-04-30T01:43:28.144Z,6.87
2023-04-30T01:46:19.336Z,8.83
2023-04-30T01:49:08.831Z,4.62
2023-04-30T01:51:44.391Z,6.00
2023-04-30T01:54:21.098Z,5.45
2023-04-30T01:57:07.755Z,4.35
2023-04-30T01:59:38.705Z,5.97
2023-04-30T02:02:07.620Z,4.55
2023-04-30T02:04:36.347Z,6.42
2023-04-30T02:07:06.709Z,4.83
2023-04-30T02:09:36.113Z,8.08
2023-04-30T02:12:05.488Z,5.12
2023-04-30T02:14:34.405Z,4.97
2023-04-30T02:17:04.414Z,6.30
2023-04-30T02:19:33.257Z,5.15
2023-04-30T02:22:02.139Z,6.60
2023-04-30T02:24:31.621Z,4.95
2023-04-30T02:27:00.885Z,5.40
2023-04-30T02:29:29.735Z,4.55
2023-04-30T02:31:59.449Z,6.05
2023-04-30T02:34:28.341Z,5.30
2023-04-30T02:36:57.475Z,3.15
2023-04-30T02:39:26.391Z,3.90
2023-04-30T02:41:55.271Z,4.87
2023-04-30T02:44:24.171Z,5.50
2023-04-30T02:46:53.070Z,6.85
2023-04-30T02:49:21.926Z,5.58
2023-04-30T02:51:50.721Z,4.03
2023-04-30T02:54:19.490Z,7.00
2023-04-30T02:56:48.419Z,5.65
2023-04-30T02:59:17.726Z,3.87
2023-04-30T03:01:46.757Z,4.90
2023-04-30T03:04:15.841Z,5.80
2023-04-30T03:06:44.922Z,4.80
2023-04-30T03:09:15.030Z,4.20
2023-04-30T03:11:43.759Z,5.10
2023-04-30T03:14:12.616Z,4.22
2023-04-30T03:16:42.924Z,4.90
2023-04-30T03:19:12.173Z,3.65
2023-04-30T03:21:41.013Z,6.87
2023-04-30T03:24:10.277Z,5.33
2023-04-30T03:26:39.601Z,6.12
2023-04-30T03:29:08.479Z,6.47
2023-04-30T03:31:37.271Z,6.90
2023-04-30T03:34:06.068Z,5.60
2023-04-30T03:36:34.956Z,6.12
2023-04-30T03:39:04.256Z,7.78
2023-04-30T03:41:33.134Z,5.72
2023-04-30T03:44:02.327Z,6.65
2023-04-30T03:46:32.205Z,4.42
2023-04-30T03:49:01.117Z,5.25
2023-04-30T03:51:30.946Z,4.40
2023-04-30T03:54:01.617Z,4.08
2023-04-30T03:56:30.344Z,3.92
2023-04-30T03:58:59.547Z,4.00
2023-04-30T04:01:30.428Z,4.47
2023-04-30T04:03:59.227Z,4.75
2023-04-30T04:06:28.937Z,3.30
2023-04-30T04:08:59.877Z,3.67
2023-04-30T04:11:29.134Z,5.00
2023-04-30T04:13:58.542Z,3.80
2023-04-30T04:16:27.248Z,7.67
2023-04-30T04:18:56.566Z,4.67
2023-04-30T04:21:25.460Z,4.87
2023-04-30T04:23:54.647Z,4.28
2023-04-30T04:26:25.664Z,5.60
2023-04-30T04:28:54.453Z,4.72
2023-04-30T04:31:23.139Z,3.52
2023-04-30T04:33:53.622Z,5.42
2023-04-30T04:36:23.169Z,6.53
2023-04-30T04:38:53.514Z,5.70
2023-04-30T04:41:24.054Z,5.83
2023-04-30T04:43:53.052Z,4.55
2023-04-30T04:46:22.292Z,5.60
2023-04-30T04:48:53.195Z,4.47
2023-04-30T04:51:21.684Z,4.92
2023-04-30T04:53:50.266Z,7.47
2023-04-30T04:56:20.592Z,5.22
2023-04-30T04:58:49.568Z,5.67
2023-04-30T05:01:18.478Z,4.75
2023-04-30T05:03:49.182Z,6.42
2023-04-30T05:06:18.349Z,3.47
2023-04-30T05:08:49.810Z,5.05
2023-04-30T05:11:18.831Z,5.78
2023-04-30T05:13:47.533Z,4.30
2023-04-30T05:16:16.762Z,4.03
2023-04-30T05:18:46.654Z,4.60
2023-04-30T05:21:15.847Z,5.92
2023-04-30T05:23:45.402Z,5.40
2023-04-30T05:26:14.215Z,3.87
2023-04-30T05:28:43.049Z,5.78
2023-04-30T05:31:12.097Z,3.40
2023-04-30T05:33:42.326Z,4.12
2023-04-30T05:36:11.048Z,4.08
2023-04-30T05:38:39.926Z,3.87
2023-04-30T05:41:11.370Z,4.47
2023-04-30T05:43:40.027Z,3.22
2023-04-30T05:46:09.191Z,2.72
2023-04-30T05:48:38.979Z,3.75
2023-04-30T05:51:07.793Z,4.20
2023-04-30T05:53:36.490Z,4.12
2023-04-30T05:56:06.175Z,3.20
2023-04-30T05:58:35.256Z,2.95
2023-04-30T06:01:04.981Z,5.35
2023-04-30T06:03:33.676Z,5.70
2023-04-30T06:06:02.480Z,5.05
2023-04-30T06:08:31.740Z,3.90
2023-04-30T06:11:02.879Z,3.83
2023-04-30T06:13:32.548Z,5.35
2023-04-30T06:16:01.232Z,6.20
2023-04-30T06:18:30.311Z,2.40
2023-04-30T06:20:59.104Z,3.42
2023-04-30T06:23:28.161Z,6.42
2023-04-30T06:25:57.241Z,4.08
2023-04-30T06:28:26.208Z,3.33
2023-04-30T06:30:55.096Z,4.45
2023-04-30T06:33:24.295Z,2.85
2023-04-30T06:35:55.216Z,4.28
2023-04-30T06:38:24.245Z,2.55
2023-04-30T06:40:52.982Z,4.55
2023-04-30T06:43:22.242Z,5.03
2023-04-30T06:45:51.561Z,3.72
2023-04-30T06:48:21.769Z,6.12
2023-04-30T06:50:51.952Z,2.67
2023-04-30T06:53:20.505Z,4.70
2023-04-30T06:55:49.910Z,4.22
2023-04-30T06:58:19.692Z,2.10
2023-04-30T07:00:48.237Z,5.25
2023-04-30T07:03:17.514Z,3.30
2023-04-30T07:05:46.696Z,4.92
2023-04-30T07:08:15.346Z,2.52
2023-04-30T07:10:43.920Z,1.92
2023-04-30T07:13:12.774Z,3.20
2023-04-30T07:15:42.248Z,2.55
2023-04-30T07:18:11.085Z,2.77
2023-04-30T07:20:40.405Z,3.55
2023-04-30T07:23:10.292Z,4.22
2023-04-30T07:25:40.184Z,3.80
2023-04-30T07:28:09.962Z,2.62
2023-04-30T07:30:39.508Z,2.92
2023-04-30T07:33:09.517Z,5.03
2023-04-30T07:35:38.466Z,2.17
2023-04-30T07:38:07.201Z,2.15
2023-04-30T07:40:37.001Z,3.95
2023-04-30T07:43:06.626Z,4.90
2023-04-30T07:45:37.160Z,2.37
2023-04-30T07:48:06.664Z,1.87
2023-04-30T07:50:37.184Z,3.90
2023-04-30T07:53:08.216Z,5.40
2023-04-30T07:55:37.034Z,2.30
2023-04-30T07:58:06.282Z,3.58
2023-04-30T08:00:35.077Z,5.05
2023-04-30T08:03:06.511Z,1.98
2023-04-30T08:05:35.270Z,4.12
2023-04-30T08:08:05.015Z,5.92
2023-04-30T08:10:33.708Z,4.08
2023-04-30T08:13:03.874Z,4.55
2023-04-30T08:15:34.581Z,3.05
2023-04-30T08:18:05.199Z,2.95
2023-04-30T08:20:34.916Z,2.22
2023-04-30T08:23:05.535Z,7.20
2023-04-30T08:25:34.267Z,2.55
2023-04-30T08:28:02.833Z,4.90
2023-04-30T08:30:31.514Z,2.45
2023-04-30T08:33:00.872Z,2.72
2023-04-30T08:35:31.666Z,3.52
2023-04-30T08:38:00.276Z,4.55
2023-04-30T08:40:49.310Z,1.57
2023-04-30T08:43:08.438Z,2.37
2023-04-30T08:45:37.709Z,3.62
2023-04-30T08:48:10.398Z,4.12
2023-04-30T08:50:39.546Z,7.97
2023-04-30T08:53:12.819Z,5.22
2023-04-30T08:55:41.766Z,2.83
2023-04-30T08:58:10.970Z,2.17
2023-04-30T09:00:40.360Z,4.00
2023-04-30T09:03:09.242Z,3.12
2023-04-30T09:05:38.101Z,3.55
2023-04-30T09:08:10.885Z,2.67
2023-04-30T09:10:39.562Z,3.45
2023-04-30T09:13:08.846Z,5.00
2023-04-30T09:15:38.900Z,2.37
2023-04-30T09:18:18.544Z,1.72
2023-04-30T09:21:04.339Z,4.25
2023-04-30T09:23:33.200Z,1.30
2023-04-30T09:26:02.537Z,2.52
2023-04-30T09:28:32.310Z,5.50
2023-04-30T09:31:02.680Z,2.42
2023-04-30T09:33:37.796Z,6.58
2023-04-30T09:36:10.846Z,3.12
2023-04-30T09:38:39.855Z,2.02
2023-04-30T09:41:26.047Z,5.55
2023-04-30T09:43:57.020Z,2.40
2023-04-30T09:46:37.555Z,2.15
2023-04-30T09:49:07.666Z,4.65
2023-04-30T09:51:36.500Z,5.15
2023-04-30T09:54:05.362Z,8.28
2023-04-30T09:56:34.233Z,10.38
2023-04-30T09:59:04.361Z,4.25
2023-04-30T10:01:33.363Z,5.65
2023-04-30T10:04:02.238Z,1.87
2023-04-30T10:06:33.360Z,4.05
2023-04-30T10:09:02.212Z,2.30
2023-04-30T10:11:31.240Z,4.90
2023-04-30T10:14:13.539Z,3.12
2023-04-30T10:16:47.527Z,2.37
2023-04-30T10:19:23.686Z,4.78
2023-04-30T10:21:52.500Z,5.05
2023-04-30T10:24:21.032Z,5.37
2023-04-30T10:26:49.594Z,1.95
2023-04-30T10:29:18.528Z,3.35
2023-04-30T10:31:48.804Z,3.90
2023-04-30T10:34:46.906Z,1.65
2023-04-30T10:37:48.276Z,5.53
2023-04-30T10:40:18.723Z,3.00
2023-04-30T10:42:49.535Z,2.00
2023-04-30T10:45:20.480Z,1.60
2023-04-30T10:47:49.647Z,2.55
2023-04-30T10:50:20.541Z,1.90
2023-04-30T10:52:51.881Z,2.02
2023-04-30T10:55:20.488Z,3.70
2023-04-30T10:57:50.962Z,2.12
2023-04-30T11:00:35.232Z,3.00
2023-04-30T11:03:21.861Z,3.00
2023-04-30T11:05:52.025Z,7.92
2023-04-30T11:08:36.252Z,3.50
2023-04-30T11:11:28.669Z,3.08
2023-04-30T11:14:00.227Z,3.08
2023-04-30T11:16:35.094Z,7.67
2023-04-30T11:19:12.063Z,5.30
2023-04-30T11:22:08.992Z,3.05
2023-04-30T11:25:05.623Z,10.75
2023-04-30T11:27:35.068Z,1.95
2023-04-30T11:30:08.221Z,3.15
2023-04-30T11:32:38.516Z,4.03
2023-04-30T11:35:08.561Z,2.95
2023-04-30T11:37:40.614Z,11.97
2023-04-30T11:40:10.982Z,5.12
2023-04-30T11:42:42.877Z,3.72
2023-04-30T11:45:18.326Z,3.62
2023-04-30T11:47:51.548Z,5.05
2023-04-30T11:50:29.116Z,4.53
2023-04-30T11:53:01.603Z,3.17
2023-04-30T11:55:31.049Z,4.72
2023-04-30T11:58:00.112Z,3.12
2023-04-30T12:00:30.178Z,3.75
2023-04-30T12:03:02.866Z,4.53
2023-04-30T12:05:32.543Z,7.50
2023-04-30T12:08:04.446Z,2.17
2023-04-30T12:10:33.301Z,1.70
2023-04-30T12:13:01.906Z,2.30
2023-04-30T12:15:30.546Z,3.27
2023-04-30T12:18:13.415Z,4.67
2023-04-30T12:20:43.056Z,11.83
2023-04-30T12:23:13.422Z,1.90
2023-04-30T12:25:43.353Z,4.25
2023-04-30T12:28:13.785Z,3.60
2023-04-30T12:30:43.246Z,17.67
2023-04-30T12:33:12.534Z,1.32
2023-04-30T12:35:43.236Z,2.37
2023-04-30T12:38:15.528Z,2.98
2023-04-30T12:40:49.238Z,2.67
2023-04-30T12:43:18.430Z,3.15
2023-04-30T12:45:52.749Z,2.75
2023-04-30T12:48:24.325Z,2.30
2023-04-30T12:51:01.693Z,2.67
2023-04-30T12:53:32.011Z,2.27
2023-04-30T12:56:15.674Z,3.42
2023-04-30T12:58:46.941Z,4.05
2023-04-30T13:01:23.546Z,9.23
2023-04-30T13:03:53.410Z,2.20
2023-04-30T13:06:23.552Z,2.08
2023-04-30T13:11:24.532Z,3.22
2023-04-30T13:13:55.746Z,2.75
2023-04-30T13:16:26.617Z,3.90
2023-04-30T13:18:55.424Z,3.62
2023-04-30T13:21:24.936Z,1.42
2023-04-30T13:23:55.756Z,1.82
2023-04-30T13:26:26.088Z,3.05
2023-04-30T13:28:54.693Z,3.08
2023-04-30T13:31:23.549Z,4.62
2023-04-30T13:33:56.278Z,3.20
2023-04-30T13:36:27.229Z,5.05
2023-04-30T13:38:57.317Z,3.37
2023-04-30T13:41:30.091Z,1.60
2023-04-30T13:44:00.767Z,4.90
2023-04-30T13:46:31.075Z,2.15
2023-04-30T13:48:59.992Z,3.47
2023-04-30T13:51:28.545Z,3.27
2023-04-30T13:53:58.102Z,3.92
2023-04-30T13:56:28.312Z,7.83
2023-04-30T13:58:57.357Z,2.75
2023-04-30T14:01:27.640Z,3.75
2023-04-30T14:03:56.859Z,2.08
2023-04-30T14:06:25.766Z,2.85
2023-04-30T14:08:55.118Z,4.12
2023-04-30T14:11:26.558Z,2.83
2023-04-30T14:13:55.514Z,3.87
2023-04-30T14:16:24.440Z,4.03
2023-04-30T14:18:52.993Z,2.70
2023-04-30T14:21:21.626Z,4.80
2023-04-30T14:23:51.948Z,1.80
2023-04-30T14:26:21.309Z,2.08
2023-04-30T14:28:50.543Z,3.30
2023-04-30T14:31:19.230Z,1.77
2023-04-30T14:33:48.915Z,3.22
2023-04-30T14:36:18.067Z,3.45
2023-04-30T14:38:46.759Z,3.95
2023-04-30T14:41:15.919Z,3.72
2023-04-30T14:43:44.634Z,7.28
2023-04-30T14:46:13.356Z,1.72
2023-04-30T14:48:41.939Z,3.80
2023-04-30T14:51:10.665Z,4.92
2023-04-30T14:53:39.579Z,2.47
2023-04-30T14:56:08.725Z,2.25
2023-04-30T14:58:37.778Z,2.47
2023-04-30T15:01:06.755Z,1.98
2023-04-30T15:03:36.000Z,2.35
2023-04-30T15:06:05.100Z,2.85
2023-04-30T15:08:35.893Z,3.02
2023-04-30T15:11:06.260Z,4.17
2023-04-30T15:13:37.451Z,2.92
2023-04-30T15:16:09.119Z,2.08
2023-04-30T15:18:37.713Z,4.58
2023-04-30T15:21:06.427Z,5.85
2023-04-30T15:23:34.880Z,4.47
2023-04-30T15:26:04.247Z,4.35
2023-04-30T15:28:33.244Z,4.47
2023-04-30T15:31:05.287Z,3.98
2023-04-30T15:33:36.830Z,3.83
2023-04-30T15:36:06.220Z,2.17
2023-04-30T15:38:35.793Z,3.47
2023-04-30T15:41:04.474Z,2.65
2023-04-30T15:43:33.221Z,3.90
2023-04-30T15:46:01.840Z,3.15
2023-04-30T15:48:30.866Z,3.70
2023-04-30T15:53:34.312Z,4.22
2023-04-30T15:56:04.447Z,3.80
2023-04-30T15:58:33.522Z,3.77
2023-04-30T16:01:02.539Z,2.77
2023-04-30T16:03:33.001Z,3.35
2023-04-30T16:06:04.823Z,2.80
2023-04-30T16:08:34.577Z,4.78
2023-04-30T16:11:03.552Z,4.28
2023-04-30T16:13:33.804Z,2.50
2023-04-30T16:16:03.288Z,3.85
2023-04-30T16:18:32.173Z,4.72
2023-04-30T16:21:01.251Z,2.10
2023-04-30T16:23:31.362Z,4.10
2023-04-30T16:26:01.180Z,4.75
2023-04-30T16:28:31.560Z,3.65
2023-04-30T16:31:00.458Z,11.40
2023-04-30T16:33:29.641Z,3.98
2023-04-30T16:35:59.363Z,9.25
2023-04-30T16:38:28.290Z,3.98
2023-04-30T16:40:56.913Z,4.90
2023-04-30T16:43:26.049Z,2.00
2023-04-30T16:45:54.705Z,3.25
2023-04-30T16:48:23.208Z,4.20
2023-04-30T16:50:52.056Z,5.72
2023-04-30T16:53:21.464Z,4.12
2023-04-30T16:55:52.769Z,5.05
2023-04-30T16:58:22.980Z,4.45
2023-04-30T17:00:53.505Z,3.35
2023-04-30T17:03:23.416Z,4.03
2023-04-30T17:05:52.572Z,4.92
2023-04-30T17:08:21.645Z,4.90
2023-04-30T17:10:50.440Z,6.08
2023-04-30T17:13:18.913Z,4.50
2023-04-30T17:15:48.577Z,3.58
2023-04-30T17:18:18.052Z,6.30
2023-04-30T17:20:48.349Z,8.00
2023-04-30T17:23:17.331Z,7.92
2023-04-30T17:25:46.305Z,5.05
2023-04-30T17:28:16.327Z,5.62
2023-04-30T17:30:44.826Z,5.17
2023-04-30T17:33:13.537Z,5.80
2023-04-30T17:35:42.273Z,3.27
2023-04-30T17:38:11.720Z,4.87
2023-04-30T17:40:40.230Z,5.70
2023-04-30T17:43:10.314Z,4.72
2023-04-30T17:45:39.175Z,3.72
2023-04-30T17:48:08.322Z,7.85
2023-04-30T17:50:37.365Z,4.70
2023-04-30T17:53:06.208Z,3.62
2023-04-30T17:55:35.028Z,3.58
2023-04-30T17:58:04.025Z,6.05
2023-04-30T18:00:34.015Z,6.35
2023-04-30T18:03:05.157Z,5.03
2023-04-30T18:05:35.807Z,6.42
2023-04-30T18:08:05.939Z,10.18
2023-04-30T18:10:34.642Z,6.25
2023-04-30T18:13:03.557Z,4.50
2023-04-30T18:15:33.168Z,7.58
2023-04-30T18:18:03.102Z,8.88
2023-04-30T18:20:31.730Z,6.22
2023-04-30T18:23:00.359Z,8.48
2023-04-30T18:25:29.937Z,5.12
2023-04-30T18:28:04.964Z,4.87
2023-04-30T18:30:38.167Z,9.13
2023-04-30T18:33:07.159Z,6.15
2023-04-30T18:35:37.080Z,7.35
2023-04-30T18:38:07.359Z,9.28
2023-04-30T18:40:37.070Z,8.90
2023-04-30T18:43:07.661Z,9.03
2023-04-30T18:45:38.973Z,11.15
2023-04-30T18:48:07.835Z,6.15
2023-04-30T18:50:37.160Z,8.38
2023-04-30T18:53:07.069Z,6.97
2023-04-30T18:55:37.589Z,8.75
2023-04-30T18:58:08.320Z,8.33
2023-04-30T19:00:37.180Z,9.73
2023-04-30T19:03:07.078Z,7.90
2023-04-30T19:05:37.512Z,11.15
2023-04-30T19:08:08.456Z,8.00
2023-04-30T19:10:37.215Z,12.35
2023-04-30T19:13:07.170Z,8.33
2023-04-30T19:15:37.177Z,7.08
2023-04-30T19:18:06.886Z,7.53
2023-04-30T19:20:36.803Z,11.53
2023-04-30T19:23:07.701Z,8.83
2023-04-30T19:25:39.709Z,5.42
2023-04-30T19:28:09.865Z,8.88
2023-04-30T19:30:39.075Z,7.53
2023-04-30T19:33:07.832Z,6.40
2023-04-30T19:35:38.071Z,12.25
2023-04-30T19:38:06.880Z,10.35
2023-04-30T19:40:35.386Z,10.05
2023-04-30T19:43:04.373Z,10.58
2023-04-30T19:45:32.850Z,12.93
2023-04-30T19:48:01.535Z,11.53
2023-04-30T19:50:32.346Z,10.08
2023-04-30T19:53:00.981Z,8.30
2023-04-30T19:55:31.293Z,9.55
2023-04-30T19:57:59.974Z,7.90
2023-04-30T20:00:28.896Z,8.40
2023-04-30T20:02:57.784Z,9.78
2023-04-30T20:05:28.162Z,10.43
2023-04-30T20:07:56.733Z,7.10
2023-04-30T20:10:25.490Z,9.68
2023-04-30T20:12:55.394Z,9.25
2023-04-30T20:15:24.498Z,10.23
2023-04-30T20:17:53.254Z,8.30
2023-04-30T20:20:24.458Z,12.28
2023-04-30T20:22:54.283Z,10.23
2023-04-30T20:25:25.434Z,10.15
2023-04-30T20:27:56.603Z,9.88
2023-04-30T20:30:25.029Z,10.82
2023-04-30T20:32:54.167Z,11.93
2023-04-30T20:35:23.569Z,11.33
2023-04-30T20:37:54.848Z,11.12
2023-04-30T20:40:24.004Z,13.95
2023-04-30T20:42:54.376Z,9.95
2023-04-30T20:45:23.396Z,11.22
2023-04-30T20:47:52.012Z,10.05
2023-04-30T20:50:20.967Z,10.38
2023-04-30T20:52:49.700Z,8.35
2023-04-30T20:55:20.694Z,12.63
2023-04-30T20:57:51.077Z,8.95
2023-04-30T21:00:20.471Z,12.37
2023-04-30T21:02:52.453Z,8.28
2023-04-30T21:05:21.109Z,8.08
2023-04-30T21:07:49.715Z,10.32
2023-04-30T21:10:19.431Z,11.60
2023-04-30T21:12:48.102Z,9.00
2023-04-30T21:15:17.319Z,10.60
2023-04-30T21:17:45.927Z,8.90
2023-04-30T21:20:14.681Z,14.87
2023-04-30T21:22:43.220Z,10.20
2023-04-30T21:25:12.181Z,17.05
2023-04-30T21:27:41.443Z,13.90
2023-04-30T21:30:10.978Z,13.10
2023-04-30T21:32:39.838Z,13.08
2023-04-30T21:35:08.965Z,11.35
2023-04-30T21:37:37.499Z,11.40
2023-04-30T21:40:07.956Z,12.73
2023-04-30T21:42:36.711Z,10.40
2023-04-30T21:45:06.525Z,8.65
2023-04-30T21:47:35.114Z,8.58
2023-04-30T21:50:05.536Z,8.58
2023-04-30T21:52:34.460Z,11.15
2023-04-30T21:55:03.038Z,8.23
2023-04-30T21:57:31.591Z,9.53
2023-04-30T22:00:00.219Z,13.58
2023-04-30T22:02:29.921Z,12.78
2023-04-30T22:05:00.583Z,9.03
2023-04-30T22:07:29.873Z,8.93
2023-04-30T22:09:58.821Z,9.75
2023-04-30T22:12:27.734Z,7.55
2023-04-30T22:14:56.309Z,6.97
2023-04-30T22:17:26.007Z,8.53
2023-04-30T22:19:55.829Z,10.20
2023-04-30T22:22:24.621Z,8.68
2023-04-30T22:24:54.553Z,7.30
2023-04-30T22:27:23.215Z,9.08
2023-04-30T22:29:52.780Z,9.90
2023-04-30T22:32:22.802Z,8.28
2023-04-30T22:34:51.294Z,7.95
2023-04-30T22:37:19.976Z,7.95
2023-04-30T22:39:48.675Z,7.80
2023-04-30T22:42:17.737Z,11.08
2023-04-30T22:44:46.914Z,10.63
2023-04-30T22:47:15.517Z,8.45
2023-04-30T22:49:44.375Z,8.93
2023-04-30T22:52:13.751Z,12.30
2023-04-30T22:54:42.425Z,10.98
2023-04-30T22:57:11.398Z,9.58
2023-04-30T22:59:40.069Z,12.25
2023-04-30T23:02:09.490Z,13.45
2023-04-30T23:04:38.900Z,9.10
2023-04-30T23:07:07.778Z,9.75
2023-04-30T23:09:36.506Z,11.60
2023-04-30T23:12:05.802Z,9.95
2023-04-30T23:14:36.967Z,13.15
2023-04-30T23:17:05.987Z,12.05
2023-04-30T23:19:34.593Z,13.83
2023-04-30T23:22:03.165Z,10.25
2023-04-30T23:24:35.667Z,10.40
2023-04-30T23:27:06.631Z,14.80
2023-04-30T23:29:36.598Z,14.25
2023-04-30T23:32:05.574Z,12.65
2023-04-30T23:34:35.058Z,12.53
2023-04-30T23:37:03.959Z,10.45
2023-04-30T23:39:33.155Z,13.00
2023-04-30T23:42:02.167Z,11.85
2023-04-30T23:44:32.517Z,11.22
2023-04-30T23:47:02.000Z,10.50
2023-04-30T23:49:31.064Z,12.98
2023-04-30T23:51:59.609Z,9.53
2023-04-30T23:54:29.702Z,14.55
2023-04-30T23:56:59.496Z,14.47
2023-04-30T23:59:28.012Z,13.35
